sensor_id;sensor_type;location;lat;lon;timestamp;P1;durP1;ratioP1;P2;durP2;ratioP2
27979;SDS011;15315;50.836;4.430;2022-09-27T00:06:14;15.55;;;3.72;;
27979;SDS011;15315;50.836;4.430;2022-09-27T00:16:14;9.15;;;2.50;;
27979;SDS011;15315;50.836;4.430;2022-09-27T00:26:15;13.48;;;2.95;;
27979;SDS011;15315;50.836;4.430;2022-09-27T00:36:15;9.82;;;1.73;;
27979;SDS011;15315;50.836;4.430;2022-09-27T00:56:24;12.65;;;2.13;;
27979;SDS011;15315;50.836;4.430;2022-09-27T01:06:25;12.23;;;1.65;;
27979;SDS011;15315;50.836;4.430;2022-09-27T01:16:33;10.98;;;2.92;;
27979;SDS011;15315;50.836;4.430;2022-09-27T01:27:02;10.93;;;1.73;;
27979;SDS011;15315;50.836;4.430;2022-09-27T01:37:13;6.68;;;1.50;;
27979;SDS011;15315;50.836;4.430;2022-09-27T01:47:22;11.65;;;1.90;;
27979;SDS011;15315;50.836;4.430;2022-09-27T01:57:24;17.88;;;2.30;;
27979;SDS011;15315;50.836;4.430;2022-09-27T02:07:26;12.07;;;2.08;;
27979;SDS011;15315;50.836;4.430;2022-09-27T02:17:30;9.25;;;2.47;;
27979;SDS011;15315;50.836;4.430;2022-09-27T02:27:35;8.65;;;2.17;;
27979;SDS011;15315;50.836;4.430;2022-09-27T02:37:36;7.70;;;1.73;;
27979;SDS011;15315;50.836;4.430;2022-09-27T02:47:47;6.38;;;2.05;;
27979;SDS011;15315;50.836;4.430;2022-09-27T03:07:49;7.68;;;2.03;;
27979;SDS011;15315;50.836;4.430;2022-09-27T03:17:49;8.52;;;2.30;;
27979;SDS011;15315;50.836;4.430;2022-09-27T03:27:50;7.97;;;2.58;;
27979;SDS011;15315;50.836;4.430;2022-09-27T03:37:50;9.20;;;3.03;;
27979;SDS011;15315;50.836;4.430;2022-09-27T03:47:50;7.43;;;2.03;;
27979;SDS011;15315;50.836;4.430;2022-09-27T03:57:51;7.20;;;2.05;;
27979;SDS011;15315;50.836;4.430;2022-09-27T04:07:51;10.60;;;2.38;;
27979;SDS011;15315;50.836;4.430;2022-09-27T04:17:51;8.88;;;2.60;;
27979;SDS011;15315;50.836;4.430;2022-09-27T04:27:51;7.55;;;3.05;;
27979;SDS011;15315;50.836;4.430;2022-09-27T04:37:53;12.02;;;3.45;;
27979;SDS011;15315;50.836;4.430;2022-09-27T04:47:54;8.05;;;5.20;;
27979;SDS011;15315;50.836;4.430;2022-09-27T04:57:54;13.65;;;7.07;;
27979;SDS011;15315;50.836;4.430;2022-09-27T05:07:54;13.23;;;8.32;;
27979;SDS011;15315;50.836;4.430;2022-09-27T05:17:54;13.50;;;5.75;;
27979;SDS011;15315;50.836;4.430;2022-09-27T05:27:55;14.20;;;6.57;;
27979;SDS011;15315;50.836;4.430;2022-09-27T05:37:57;9.43;;;5.47;;
27979;SDS011;15315;50.836;4.430;2022-09-27T05:47:59;14.75;;;6.00;;
27979;SDS011;15315;50.836;4.430;2022-09-27T05:58:00;13.95;;;6.03;;
27979;SDS011;15315;50.836;4.430;2022-09-27T06:08:01;11.23;;;4.85;;
27979;SDS011;15315;50.836;4.430;2022-09-27T06:18:06;8.18;;;4.03;;
27979;SDS011;15315;50.836;4.430;2022-09-27T06:28:06;7.47;;;4.53;;
27979;SDS011;15315;50.836;4.430;2022-09-27T06:38:09;5.55;;;4.13;;
27979;SDS011;15315;50.836;4.430;2022-09-27T06:48:10;11.27;;;3.13;;
27979;SDS011;15315;50.836;4.430;2022-09-27T06:58:12;9.93;;;3.53;;
27979;SDS011;15315;50.836;4.430;2022-09-27T07:08:30;9.35;;;3.53;;
27979;SDS011;15315;50.836;4.430;2022-09-27T07:18:31;9.48;;;3.35;;
27979;SDS011;15315;50.836;4.430;2022-09-27T07:28:31;8.68;;;3.67;;
27979;SDS011;15315;50.836;4.430;2022-09-27T07:38:32;5.50;;;2.95;;
27979;SDS011;15315;50.836;4.430;2022-09-27T07:48:32;7.18;;;2.88;;
27979;SDS011;15315;50.836;4.430;2022-09-27T07:58:32;6.10;;;3.00;;
27979;SDS011;15315;50.836;4.430;2022-09-27T08:08:33;9.13;;;3.35;;
27979;SDS011;15315;50.836;4.430;2022-09-27T08:18:33;8.77;;;2.88;;
27979;SDS011;15315;50.836;4.430;2022-09-27T08:28:33;7.03;;;2.70;;
27979;SDS011;15315;50.836;4.430;2022-09-27T08:38:33;5.75;;;2.28;;
27979;SDS011;15315;50.836;4.430;2022-09-27T08:48:34;4.10;;;1.90;;
27979;SDS011;15315;50.836;4.430;2022-09-27T08:58:39;5.82;;;2.05;;
27979;SDS011;15315;50.836;4.430;2022-09-27T09:38:51;6.70;;;1.90;;
27979;SDS011;15315;50.836;4.430;2022-09-27T09:48:56;4.47;;;1.80;;
27979;SDS011;15315;50.836;4.430;2022-09-27T09:59:02;9.35;;;2.38;;
27979;SDS011;15315;50.836;4.430;2022-09-27T10:09:03;6.40;;;2.08;;
27979;SDS011;15315;50.836;4.430;2022-09-27T10:19:03;8.38;;;2.38;;
27979;SDS011;15315;50.836;4.430;2022-09-27T10:29:24;8.13;;;1.90;;
27979;SDS011;15315;50.836;4.430;2022-09-27T10:39:28;7.50;;;2.83;;
27979;SDS011;15315;50.836;4.430;2022-09-27T10:49:28;8.73;;;2.13;;
27979;SDS011;15315;50.836;4.430;2022-09-27T10:59:31;10.35;;;2.50;;
27979;SDS011;15315;50.836;4.430;2022-09-27T11:09:42;10.55;;;2.50;;
27979;SDS011;15315;50.836;4.430;2022-09-27T12:10:13;7.53;;;1.27;;
27979;SDS011;15315;50.836;4.430;2022-09-27T12:20:20;4.55;;;1.25;;
27979;SDS011;15315;50.836;4.430;2022-09-27T12:30:21;5.20;;;1.50;;
27979;SDS011;15315;50.836;4.430;2022-09-27T12:40:28;8.23;;;2.10;;
27979;SDS011;15315;50.836;4.430;2022-09-27T12:50:35;8.90;;;1.83;;
27979;SDS011;15315;50.836;4.430;2022-09-27T13:00:41;10.25;;;1.85;;
27979;SDS011;15315;50.836;4.430;2022-09-27T13:10:51;3.53;;;1.55;;
27979;SDS011;15315;50.836;4.430;2022-09-27T13:20:55;4.10;;;1.25;;
27979;SDS011;15315;50.836;4.430;2022-09-27T13:31:05;3.60;;;1.23;;
27979;SDS011;15315;50.836;4.430;2022-09-27T13:41:16;7.38;;;1.52;;
27979;SDS011;15315;50.836;4.430;2022-09-27T14:01:19;8.02;;;1.95;;
27979;SDS011;15315;50.836;4.430;2022-09-27T14:11:28;8.07;;;2.17;;
27979;SDS011;15315;50.836;4.430;2022-09-27T14:21:33;9.07;;;1.75;;
27979;SDS011;15315;50.836;4.430;2022-09-27T14:31:35;8.52;;;2.47;;
27979;SDS011;15315;50.836;4.430;2022-09-27T14:41:35;10.35;;;2.28;;
27979;SDS011;15315;50.836;4.430;2022-09-27T14:51:36;11.15;;;2.35;;
27979;SDS011;15315;50.836;4.430;2022-09-27T15:01:37;7.65;;;1.55;;
27979;SDS011;15315;50.836;4.430;2022-09-27T15:11:39;7.50;;;1.98;;
27979;SDS011;15315;50.836;4.430;2022-09-27T15:21:40;8.77;;;2.08;;
27979;SDS011;15315;50.836;4.430;2022-09-27T15:31:40;5.68;;;1.35;;
27979;SDS011;15315;50.836;4.430;2022-09-27T15:52:01;3.83;;;1.50;;
27979;SDS011;15315;50.836;4.430;2022-09-27T16:02:03;3.38;;;1.15;;
27979;SDS011;15315;50.836;4.430;2022-09-27T16:12:06;6.30;;;1.50;;
27979;SDS011;15315;50.836;4.430;2022-09-27T16:22:06;5.10;;;1.40;;
27979;SDS011;15315;50.836;4.430;2022-09-27T16:32:06;5.60;;;1.40;;
27979;SDS011;15315;50.836;4.430;2022-09-27T16:42:07;7.60;;;2.33;;
27979;SDS011;15315;50.836;4.430;2022-09-27T16:52:08;8.60;;;2.80;;
27979;SDS011;15315;50.836;4.430;2022-09-27T17:02:09;22.83;;;13.30;;
27979;SDS011;15315;50.836;4.430;2022-09-27T17:12:10;6.88;;;2.40;;
27979;SDS011;15315;50.836;4.430;2022-09-27T17:22:10;7.28;;;3.30;;
27979;SDS011;15315;50.836;4.430;2022-09-27T17:32:11;10.77;;;3.35;;
27979;SDS011;15315;50.836;4.430;2022-09-27T17:42:12;8.43;;;3.25;;
27979;SDS011;15315;50.836;4.430;2022-09-27T17:52:12;11.13;;;4.70;;
27979;SDS011;15315;50.836;4.430;2022-09-27T18:02:13;11.30;;;3.35;;
27979;SDS011;15315;50.836;4.430;2022-09-27T18:12:13;33.03;;;4.38;;
27979;SDS011;15315;50.836;4.430;2022-09-27T18:22:14;17.55;;;3.10;;
27979;SDS011;15315;50.836;4.430;2022-09-27T18:32:14;7.40;;;2.42;;
27979;SDS011;15315;50.836;4.430;2022-09-27T18:42:15;5.90;;;3.10;;
27979;SDS011;15315;50.836;4.430;2022-09-27T18:52:15;4.32;;;2.58;;
27979;SDS011;15315;50.836;4.430;2022-09-27T19:02:15;7.95;;;2.88;;
27979;SDS011;15315;50.836;4.430;2022-09-27T19:12:16;8.63;;;4.72;;
27979;SDS011;15315;50.836;4.430;2022-09-27T19:22:16;11.88;;;7.05;;
27979;SDS011;15315;50.836;4.430;2022-09-27T19:32:16;17.85;;;8.55;;
27979;SDS011;15315;50.836;4.430;2022-09-27T19:42:17;17.52;;;9.48;;
27979;SDS011;15315;50.836;4.430;2022-09-27T19:52:17;12.40;;;6.38;;
27979;SDS011;15315;50.836;4.430;2022-09-27T20:02:17;30.10;;;7.07;;
27979;SDS011;15315;50.836;4.430;2022-09-27T20:12:18;11.15;;;3.95;;
27979;SDS011;15315;50.836;4.430;2022-09-27T20:22:18;9.20;;;5.55;;
27979;SDS011;15315;50.836;4.430;2022-09-27T20:32:18;15.43;;;7.95;;
27979;SDS011;15315;50.836;4.430;2022-09-27T20:42:18;10.45;;;5.55;;
27979;SDS011;15315;50.836;4.430;2022-09-27T20:52:19;20.30;;;9.13;;
27979;SDS011;15315;50.836;4.430;2022-09-27T21:02:19;17.67;;;10.60;;
27979;SDS011;15315;50.836;4.430;2022-09-27T21:12:20;19.17;;;11.27;;
27979;SDS011;15315;50.836;4.430;2022-09-27T21:22:21;17.35;;;11.50;;
27979;SDS011;15315;50.836;4.430;2022-09-27T21:32:21;22.25;;;12.10;;
27979;SDS011;15315;50.836;4.430;2022-09-27T21:42:22;25.77;;;13.10;;
27979;SDS011;15315;50.836;4.430;2022-09-27T21:52:22;26.52;;;11.88;;
27979;SDS011;15315;50.836;4.430;2022-09-27T22:02:22;16.13;;;7.40;;
27979;SDS011;15315;50.836;4.430;2022-09-27T22:12:23;20.35;;;9.13;;
27979;SDS011;15315;50.836;4.430;2022-09-27T22:22:23;15.35;;;8.10;;
27979;SDS011;15315;50.836;4.430;2022-09-27T22:32:23;14.27;;;6.50;;
27979;SDS011;15315;50.836;4.430;2022-09-27T22:42:23;13.13;;;6.28;;
27979;SDS011;15315;50.836;4.430;2022-09-27T22:52:24;8.85;;;5.90;;
27979;SDS011;15315;50.836;4.430;2022-09-27T23:02:24;13.90;;;7.15;;
27979;SDS011;15315;50.836;4.430;2022-09-27T23:12:24;14.75;;;6.50;;
27979;SDS011;15315;50.836;4.430;2022-09-27T23:22:25;13.52;;;6.60;;
27979;SDS011;15315;50.836;4.430;2022-09-27T23:32:25;14.52;;;6.65;;
27979;SDS011;15315;50.836;4.430;2022-09-27T23:42:25;11.15;;;6.47;;
27979;SDS011;15315;50.836;4.430;2022-09-27T23:52:26;9.35;;;5.68;;
